createdAt,value
2022-11-01T00:04:19.190Z,99299.25
2022-11-01T00:09:21.832Z,99339.28
2022-11-01T00:14:24.530Z,99317.72
2022-11-01T00:19:27.849Z,99329.84
2022-11-01T00:24:31.696Z,99317.84
2022-11-01T00:29:34.271Z,99328.88
2022-11-01T00:34:37.229Z,99332.94
2022-11-01T00:39:39.844Z,99333.72
2022-11-01T00:44:42.387Z,99353.28
2022-11-01T00:49:45.015Z,99353.78
2022-11-01T00:54:47.561Z,99339.25
2022-11-01T00:59:50.193Z,99348.69
2022-11-01T01:04:52.799Z,99349.41
2022-11-01T01:09:55.375Z,99309.03
2022-11-01T01:14:58.459Z,99353.81
2022-11-01T01:20:02.686Z,99327.97
2022-11-01T01:25:06.049Z,99347.75
2022-11-01T01:30:09.468Z,99350.38
2022-11-01T01:35:12.031Z,99353.13
2022-11-01T01:40:14.601Z,99330.88
2022-11-01T01:45:35.163Z,99348.91
2022-11-01T01:50:47.275Z,99334.03
2022-11-01T01:56:00.478Z,99341.63
2022-11-01T02:01:03.197Z,99366.41
2022-11-01T02:06:13.777Z,99372.28
2022-11-01T02:11:17.879Z,99358.41
2022-11-01T02:16:44.273Z,99366.38
2022-11-01T02:22:09.631Z,99364.41
2022-11-01T02:27:21.481Z,99349.91
2022-11-01T02:32:29.815Z,99373.22
2022-11-01T02:37:49.435Z,99381.09
2022-11-01T02:43:01.284Z,99354.31
2022-11-01T02:48:06.730Z,99372.34
2022-11-01T02:53:10.149Z,99363.69
2022-11-01T02:58:22.423Z,99392.84
2022-11-01T03:03:29.823Z,99408.97
2022-11-01T03:08:51.987Z,99402.06
2022-11-01T03:14:06.736Z,99400.56
2022-11-01T03:19:46.528Z,99410.03
2022-11-01T03:24:55.295Z,99394.81
2022-11-01T03:30:10.302Z,99397.38
2022-11-01T03:35:18.757Z,99394.06
2022-11-01T03:40:25.222Z,99383.06
2022-11-01T03:45:30.589Z,99399.16
2022-11-01T03:50:34.346Z,99401.75
2022-11-01T03:55:36.976Z,99401.75
2022-11-01T04:00:42.497Z,99402.47
2022-11-01T04:05:45.153Z,99400.22
2022-11-01T04:10:47.653Z,99391.47
2022-11-01T04:16:08.898Z,99401.78
2022-11-01T04:21:19.248Z,99401.63
2022-11-01T04:26:23.365Z,99401.59
2022-11-01T04:31:36.948Z,99391.44
2022-11-01T04:36:39.475Z,99400.16
2022-11-01T04:41:42.026Z,99393.41
2022-11-01T04:46:44.554Z,99414.06
2022-11-01T04:51:47.591Z,99417.50
2022-11-01T04:56:50.146Z,99416.69
2022-11-01T05:01:52.859Z,99399.47
2022-11-01T05:06:55.506Z,99418.56
2022-11-01T05:11:58.019Z,99420.38
2022-11-01T05:17:00.975Z,99410.91
2022-11-01T05:22:04.422Z,99421.34
2022-11-01T05:27:07.293Z,99422.25
2022-11-01T05:32:10.082Z,99430.13
2022-11-01T05:37:12.747Z,99426.59
2022-11-01T05:42:15.327Z,99433.75
2022-11-01T05:47:17.948Z,99438.09
2022-11-01T05:52:20.995Z,99433.75
2022-11-01T05:57:23.541Z,99412.63
2022-11-01T06:02:26.172Z,99438.56
2022-11-01T06:07:29.146Z,99441.16
2022-11-01T06:12:31.708Z,99441.16
2022-11-01T06:17:34.329Z,99447.06
2022-11-01T06:22:36.954Z,99435.91
2022-11-01T06:27:40.829Z,99421.47
2022-11-01T06:32:43.549Z,99437.84
2022-11-01T06:37:47.395Z,99439.13
2022-11-01T06:42:49.982Z,99457.25
2022-11-01T06:47:53.005Z,99449.41
2022-11-01T06:53:00.329Z,99453.78
2022-11-01T06:58:06.676Z,99451.53
2022-11-01T07:03:12.819Z,99450.84
2022-11-01T07:08:15.487Z,99456.75
2022-11-01T07:13:18.293Z,99468.63
2022-11-01T07:18:20.854Z,99446.94
2022-11-01T07:23:23.708Z,99462.47
2022-11-01T07:28:26.509Z,99460.69
2022-11-01T07:33:29.027Z,99469.59
2022-11-01T07:38:32.975Z,99461.13
2022-11-01T07:43:36.830Z,99445.91
2022-11-01T07:48:39.410Z,99476.03
2022-11-01T07:53:42.396Z,99484.47
2022-11-01T07:58:44.966Z,99490.16
2022-11-01T08:03:49.367Z,99485.56
2022-11-01T08:08:52.016Z,99482.44
2022-11-01T08:13:57.844Z,99476.63
2022-11-01T08:19:03.334Z,99440.03
2022-11-01T08:24:06.030Z,99464.53
2022-11-01T08:29:09.470Z,99463.94
2022-11-01T08:34:16.024Z,99476.03
2022-11-01T08:39:19.882Z,99477.94
2022-11-01T08:44:22.383Z,99471.31
2022-11-01T08:49:24.998Z,99474.91
2022-11-01T08:54:27.517Z,99466.22
2022-11-01T08:59:30.207Z,99469.63
2022-11-01T09:04:46.979Z,99473.22
2022-11-01T09:09:56.767Z,99469.44
2022-11-01T09:14:59.548Z,99472.09
2022-11-01T09:20:02.433Z,99475.94
2022-11-01T09:25:06.269Z,99480.25
2022-11-01T09:30:09.571Z,99475.97
2022-11-01T09:35:12.847Z,99462.31
2022-11-01T09:40:16.374Z,99439.56
2022-11-01T09:45:22.909Z,99462.16
2022-11-01T09:50:30.334Z,99428.69
2022-11-01T09:56:12.536Z,99452.00
2022-11-01T10:01:52.711Z,99455.31
2022-11-01T10:07:01.253Z,99461.19
2022-11-01T10:12:21.516Z,99410.91
2022-11-01T10:18:02.443Z,99435.94
2022-11-01T10:23:06.115Z,99453.72
2022-11-01T10:28:21.103Z,99459.34
2022-11-01T10:33:27.384Z,99450.75
2022-11-01T10:44:21.481Z,99452.59
2022-11-01T10:49:46.160Z,99466.50
2022-11-01T10:54:55.970Z,99468.38
2022-11-01T11:00:01.678Z,99468.06
2022-11-01T11:05:05.869Z,99454.03
2022-11-01T11:10:24.961Z,99471.91
2022-11-01T11:15:44.055Z,99468.56
2022-11-01T11:20:55.627Z,99458.81
2022-11-01T11:26:16.775Z,99430.06
2022-11-01T11:31:31.691Z,99475.69
2022-11-01T11:36:38.120Z,99468.94
2022-11-01T11:41:42.005Z,99468.22
2022-11-01T11:46:57.739Z,99469.72
2022-11-01T11:52:00.455Z,99479.09
2022-11-01T11:57:12.043Z,99473.03
2022-11-01T12:02:36.644Z,99479.94
2022-11-01T12:07:54.509Z,99460.06
2022-11-01T12:12:57.223Z,99472.78
2022-11-01T12:18:19.456Z,99475.41
2022-11-01T12:23:27.376Z,99462.22
2022-11-01T12:28:38.027Z,99477.94
2022-11-01T12:33:51.891Z,99471.78
2022-11-01T12:39:13.843Z,99463.50
2022-11-01T12:44:22.705Z,99480.03
2022-11-01T12:49:39.453Z,99474.06
2022-11-01T12:55:16.576Z,99481.81
2022-11-01T13:00:27.030Z,99463.94
2022-11-01T13:05:49.258Z,99481.16
2022-11-01T13:10:52.949Z,99475.88
2022-11-01T13:16:04.990Z,99480.06
2022-11-01T13:21:40.815Z,99478.41
2022-11-01T13:26:56.959Z,99441.44
2022-11-01T13:32:17.878Z,99460.44
2022-11-01T13:37:36.746Z,99448.31
2022-11-01T13:43:07.487Z,99432.59
2022-11-01T13:48:09.899Z,99458.47
2022-11-01T13:53:28.404Z,99445.50
2022-11-01T13:58:32.823Z,99465.06
2022-11-01T14:03:35.731Z,99463.56
2022-11-01T14:08:43.945Z,99465.09
2022-11-01T14:13:47.794Z,99471.06
2022-11-01T14:19:06.480Z,99465.06
2022-11-01T14:24:18.659Z,99461.50
2022-11-01T14:29:21.311Z,99465.09
2022-11-01T14:34:28.766Z,99470.28
2022-11-01T14:39:55.978Z,99463.50
2022-11-01T14:45:00.538Z,99456.69
2022-11-01T14:50:16.840Z,99433.38
2022-11-01T14:55:25.316Z,99451.22
2022-11-01T15:00:30.485Z,99459.66
2022-11-01T15:05:33.115Z,99442.34
2022-11-01T15:10:42.436Z,99453.38
2022-11-01T15:15:56.613Z,99445.53
2022-11-01T15:21:00.988Z,99436.06
2022-11-01T15:26:10.249Z,99435.28
2022-11-01T15:31:12.937Z,99425.63
2022-11-01T15:36:26.970Z,99445.41
2022-11-01T15:41:34.589Z,99441.78
2022-11-01T15:46:41.071Z,99451.44
2022-11-01T15:51:50.706Z,99452.47
2022-11-01T15:56:55.556Z,99459.59
2022-11-01T16:02:01.145Z,99464.59
2022-11-01T16:07:07.227Z,99453.41
2022-11-01T16:12:25.959Z,99449.81
2022-11-01T16:17:40.947Z,99455.81
2022-11-01T16:22:43.450Z,99451.47
2022-11-01T16:28:05.214Z,99452.59
2022-11-01T16:33:44.256Z,99437.19
2022-11-01T16:38:47.732Z,99443.19
2022-11-01T16:43:56.096Z,99442.63
2022-11-01T16:49:16.705Z,99435.81
2022-11-01T16:54:19.254Z,99437.63
2022-11-01T16:59:33.767Z,99440.31
2022-11-01T17:04:40.170Z,99433.69
2022-11-01T17:09:42.727Z,99421.75
2022-11-01T17:14:45.903Z,99440.59
2022-11-01T17:19:54.088Z,99421.34
2022-11-01T17:24:57.047Z,99416.31
2022-11-01T17:29:59.729Z,99423.97
2022-11-01T17:35:02.395Z,99428.50
2022-11-01T17:40:19.051Z,99415.94
2022-11-01T17:45:22.923Z,99429.72
2022-11-01T17:50:25.596Z,99408.50
2022-11-01T17:55:28.138Z,99416.88
2022-11-01T18:00:31.281Z,99406.31
2022-11-01T18:05:36.625Z,99414.63
2022-11-01T18:10:58.114Z,99421.28
2022-11-01T18:16:12.862Z,99420.19
2022-11-01T18:21:26.165Z,99419.00
2022-11-01T18:26:31.609Z,99422.25
2022-11-01T18:31:40.613Z,99415.47
2022-11-01T18:36:52.476Z,99429.94
2022-11-01T18:41:55.300Z,99423.97
2022-11-01T18:47:02.665Z,99422.34
2022-11-01T18:52:11.661Z,99428.34
2022-11-01T18:57:17.343Z,99405.31
2022-11-01T19:02:23.589Z,99402.00
2022-11-01T19:07:44.477Z,99415.31
2022-11-01T19:12:56.410Z,99410.41
2022-11-01T19:18:03.401Z,99398.63
2022-11-01T19:23:20.216Z,99404.63
2022-11-01T19:28:37.632Z,99397.69
2022-11-01T19:33:43.981Z,99400.91
2022-11-01T19:38:48.192Z,99377.56
2022-11-01T19:43:51.654Z,99391.44
2022-11-01T19:48:55.198Z,99396.63
2022-11-01T19:54:00.119Z,99388.97
2022-11-01T19:59:04.876Z,99404.69
2022-11-01T20:04:15.944Z,99401.25
2022-11-01T20:09:25.373Z,99399.19
2022-11-01T20:14:29.041Z,99389.44
2022-11-01T20:19:31.804Z,99404.09
2022-11-01T20:24:34.691Z,99388.75
2022-11-01T20:29:37.298Z,99397.75
2022-11-01T20:34:40.094Z,99397.78
2022-11-01T20:39:42.666Z,99386.69
2022-11-01T20:44:45.262Z,99391.88
2022-11-01T20:49:47.839Z,99391.88
2022-11-01T20:54:50.442Z,99388.59
2022-11-01T20:59:55.793Z,99389.38
2022-11-01T21:05:26.165Z,99387.63
2022-11-01T21:10:42.905Z,99390.31
2022-11-01T21:15:46.452Z,99366.84
2022-11-01T21:20:49.510Z,99387.69
2022-11-01T21:25:58.203Z,99387.53
2022-11-01T21:31:28.758Z,99386.75
2022-11-01T21:36:39.531Z,99375.44
2022-11-01T21:41:45.251Z,99367.56
2022-11-01T21:46:53.710Z,99368.34
2022-11-01T21:52:00.491Z,99379.38
2022-11-01T21:57:05.221Z,99390.53
2022-11-01T22:02:11.225Z,99385.19
2022-11-01T22:07:14.103Z,99398.78
2022-11-01T22:12:17.180Z,99387.56
2022-11-01T22:17:20.315Z,99380.91
2022-11-01T22:22:22.837Z,99358.69
2022-11-01T22:27:25.787Z,99377.09
2022-11-01T22:32:29.390Z,99370.59
2022-11-01T22:37:35.386Z,99370.59
2022-11-01T22:42:38.077Z,99368.94
2022-11-01T22:47:40.669Z,99358.66
2022-11-01T22:52:44.418Z,99351.84
2022-11-01T22:58:27.958Z,99342.50
2022-11-01T23:03:40.849Z,99333.16
2022-11-01T23:08:43.425Z,99316.97
2022-11-01T23:14:04.465Z,99323.78
2022-11-01T23:19:11.520Z,99340.97
2022-11-01T23:24:14.230Z,99330.50
2022-11-01T23:29:16.817Z,99297.69
2022-11-01T23:34:19.476Z,99317.38
2022-11-01T23:39:24.679Z,99320.81
2022-11-01T23:44:30.068Z,99319.28
2022-11-01T23:49:34.508Z,99271.38
2022-11-01T23:54:43.124Z,99301.59
2022-11-01T23:59:47.303Z,99296.53
